createdAt,value
2018-11-12T00:02:44.606Z,12.36
2018-11-12T00:08:39.650Z,13.13
2018-11-12T00:14:34.600Z,13.32
2018-11-12T00:20:29.595Z,12.63
2018-11-12T00:26:24.620Z,11.1
2018-11-12T00:32:19.636Z,12.45
2018-11-12T00:38:14.627Z,15.1
2018-11-12T00:44:09.633Z,14.98
2018-11-12T00:50:04.634Z,15.4
2018-11-12T00:55:59.631Z,15.68
2018-11-12T01:01:54.638Z,15.3
2018-11-12T01:07:49.640Z,14.95
2018-11-12T01:13:44.698Z,14.8
2018-11-12T01:19:39.642Z,14.04
2018-11-12T01:25:34.654Z,14.72
2018-11-12T01:31:29.666Z,13.64
2018-11-12T01:37:24.678Z,12.34
2018-11-12T01:43:19.664Z,12.71
2018-11-12T01:49:14.652Z,13.3
2018-11-12T01:55:09.708Z,12.93
2018-11-12T02:01:04.731Z,13.03
2018-11-12T02:06:59.654Z,13.27
2018-11-12T02:12:54.675Z,13.06
2018-11-12T02:18:49.666Z,12.33
2018-11-12T02:24:44.683Z,11.62
2018-11-12T02:30:39.689Z,11.86
2018-11-12T02:36:34.728Z,12.11
2018-11-12T02:42:29.706Z,12.07
2018-11-12T02:48:24.688Z,12.52
2018-11-12T02:54:19.704Z,11.5
2018-11-12T03:00:14.721Z,11.51
2018-11-12T03:06:09.727Z,11.87
2018-11-12T03:12:04.767Z,11.68
2018-11-12T03:17:59.692Z,11.57
2018-11-12T03:23:54.730Z,11.03
2018-11-12T03:29:49.718Z,10.6
2018-11-12T03:35:44.788Z,10.89
2018-11-12T03:41:39.735Z,12.15
2018-11-12T03:47:34.733Z,11.22
2018-11-12T03:53:29.728Z,12.55
2018-11-12T03:59:24.716Z,11.74
2018-11-12T04:05:19.755Z,11.44
2018-11-12T04:11:14.738Z,12.13
2018-11-12T04:17:09.736Z,12.38
2018-11-12T04:23:04.742Z,11.65
2018-11-12T04:28:59.806Z,12.01
2018-11-12T04:34:54.733Z,11.71
2018-11-12T04:40:49.760Z,11.36
2018-11-12T04:46:44.779Z,10.53
2018-11-12T04:52:39.755Z,11.07
2018-11-12T04:58:34.760Z,12.3
2018-11-12T05:04:29.790Z,10.87
2018-11-12T05:10:24.821Z,9.78
2018-11-12T05:16:19.767Z,10.42
2018-11-12T05:22:14.772Z,10.69
2018-11-12T05:28:09.776Z,9.14
2018-11-12T05:34:04.816Z,10.37
2018-11-12T05:39:59.816Z,10.19
2018-11-12T05:45:54.811Z,11.24
2018-11-12T05:51:49.790Z,10.72
2018-11-12T05:57:44.833Z,10.13
2018-11-12T06:03:39.799Z,10.24
2018-11-12T06:09:34.787Z,9.54
2018-11-12T06:15:29.814Z,9.07
2018-11-12T06:21:24.823Z,9.28
2018-11-12T06:27:19.818Z,9.36
2018-11-12T06:33:14.818Z,9.5
2018-11-12T06:39:09.831Z,9.57
2018-11-12T06:45:04.813Z,9.86
2018-11-12T06:50:59.827Z,10.05
2018-11-12T06:56:54.836Z,9.93
2018-11-12T07:02:49.857Z,9.48
2018-11-12T07:08:44.877Z,9.29
2018-11-12T07:14:39.847Z,10.04
2018-11-12T07:20:34.844Z,9.58
2018-11-12T07:26:29.858Z,9.9
2018-11-12T07:32:24.857Z,10.08
2018-11-12T07:38:19.863Z,12.33
2018-11-12T07:44:14.839Z,10.96
2018-11-12T07:50:09.851Z,11.56
2018-11-12T07:56:04.890Z,11.37
2018-11-12T08:01:59.897Z,11.59
2018-11-12T08:07:54.910Z,11.24
2018-11-12T08:13:49.906Z,11.68
2018-11-12T08:19:44.884Z,11.34
2018-11-12T08:25:39.867Z,10.93
2018-11-12T08:31:34.855Z,11.43
2018-11-12T08:37:29.888Z,11.38
2018-11-12T08:43:24.880Z,10.69
2018-11-12T08:49:19.941Z,10.47
2018-11-12T08:55:15.071Z,11.1
2018-11-12T09:01:09.877Z,10.49
2018-11-12T09:07:04.909Z,10.93
2018-11-12T09:12:59.927Z,14.92
2018-11-12T09:18:54.947Z,17.21
2018-11-12T09:24:49.933Z,16.23
2018-11-12T09:30:46.313Z,13.33
2018-11-12T09:36:40.055Z,15.58
2018-11-12T09:42:35.052Z,16.67
2018-11-12T09:48:29.989Z,15.46
2018-11-12T09:54:25.190Z,16.12
2018-11-12T10:00:20.155Z,14.12
2018-11-12T10:06:16.201Z,13.85
2018-11-12T10:12:12.115Z,14.96
2018-11-12T10:18:07.355Z,15.09
2018-11-12T10:23:59.964Z,15.86
2018-11-12T10:29:54.968Z,16.92
2018-11-12T10:35:50.011Z,15.1
2018-11-12T10:41:44.989Z,15.02
2018-11-12T10:47:40.016Z,15.97
2018-11-12T10:53:35.024Z,16.94
2018-11-12T10:59:30.060Z,14.88
2018-11-12T11:05:25.037Z,16.82
2018-11-12T11:11:20.001Z,18.18
2018-11-12T11:17:15.013Z,17.51
2018-11-12T11:23:10.018Z,18.19
2018-11-12T11:29:04.996Z,17.03
2018-11-12T11:35:00.036Z,19.49
2018-11-12T11:40:55.132Z,18.9
2018-11-12T11:46:50.018Z,20.13
2018-11-12T11:52:45.042Z,20.63
2018-11-12T11:58:40.042Z,23.71
2018-11-12T12:04:35.020Z,20.88
2018-11-12T12:10:30.014Z,21.48
2018-11-12T12:16:25.038Z,21.83
2018-11-12T12:22:20.022Z,27.19
2018-11-12T12:28:15.020Z,26.01
2018-11-12T12:34:10.081Z,26.75
2018-11-12T12:40:05.014Z,25.4
2018-11-12T12:46:00.083Z,21.64
2018-11-12T12:51:55.060Z,21.26
2018-11-12T12:57:50.056Z,21.43
2018-11-12T13:03:45.031Z,22.94
2018-11-12T13:09:40.036Z,21.85
2018-11-12T13:15:35.059Z,19.84
2018-11-12T13:21:30.156Z,20.56
2018-11-12T13:27:25.055Z,20.66
2018-11-12T13:33:20.089Z,21.71
2018-11-12T13:39:15.060Z,21.27
2018-11-12T13:45:10.025Z,21.24
2018-11-12T13:51:05.057Z,21.67
2018-11-12T13:57:00.087Z,20.27
2018-11-12T14:02:55.064Z,19.58
2018-11-12T14:08:50.042Z,19.18
2018-11-12T14:14:45.058Z,19.35
2018-11-12T14:20:40.243Z,18.98
2018-11-12T14:26:35.057Z,20.31
2018-11-12T14:32:30.107Z,19.36
2018-11-12T14:38:25.065Z,17.04
2018-11-12T14:44:20.076Z,17.69
2018-11-12T14:50:15.093Z,17.78
2018-11-12T14:56:10.117Z,18.01
2018-11-12T15:02:05.101Z,19.12
2018-11-12T15:08:00.111Z,18.82
2018-11-12T15:13:55.101Z,17.8
2018-11-12T15:19:50.073Z,17.84
2018-11-12T15:25:45.097Z,18.5
2018-11-12T15:31:40.167Z,18.98
2018-11-12T15:37:35.238Z,20.21
2018-11-12T15:43:30.095Z,20.48
2018-11-12T15:49:25.105Z,20.68
2018-11-12T15:55:20.124Z,19.96
2018-11-12T16:01:15.097Z,18.71
2018-11-12T16:07:10.199Z,18.77
2018-11-12T16:13:05.144Z,18.8
2018-11-12T16:19:00.138Z,19.58
2018-11-12T16:24:55.122Z,20.4
2018-11-12T16:30:50.170Z,17.59
2018-11-12T16:36:45.155Z,18.54
2018-11-12T16:42:40.139Z,22.14
2018-11-12T16:48:35.138Z,22.09
2018-11-12T16:54:30.152Z,17.94
2018-11-12T17:00:25.139Z,16.83
2018-11-12T17:06:20.213Z,15.39
2018-11-12T17:12:15.208Z,15.87
2018-11-12T17:18:10.151Z,23.23
2018-11-12T17:24:05.162Z,22.43
2018-11-12T17:30:00.155Z,21.21
2018-11-12T17:35:55.183Z,19.27
2018-11-12T17:41:50.200Z,17.76
2018-11-12T17:47:45.214Z,17.02
2018-11-12T17:53:40.164Z,21.27
2018-11-12T17:59:35.170Z,22.81
2018-11-12T18:05:30.171Z,18.14
2018-11-12T18:11:25.192Z,14.39
2018-11-12T18:17:20.175Z,16.06
2018-11-12T18:23:15.266Z,16.7
2018-11-12T18:29:10.195Z,24.46
2018-11-12T18:35:05.180Z,22
2018-11-12T18:41:00.187Z,23.76
2018-11-12T18:46:55.204Z,19.05
2018-11-12T18:52:50.284Z,18.4
2018-11-12T18:58:45.205Z,21.66
2018-11-12T19:04:40.218Z,17.12
2018-11-12T19:10:35.217Z,13.42
2018-11-12T19:16:30.277Z,16.1
2018-11-12T19:22:25.273Z,23.47
2018-11-12T19:28:20.231Z,26.28
2018-11-12T19:34:15.237Z,21.76
2018-11-12T19:40:10.327Z,22.09
2018-11-12T19:46:05.307Z,14.1
2018-11-12T19:52:00.245Z,14.63
2018-11-12T19:57:55.256Z,15.32
2018-11-12T20:03:50.245Z,15.82
2018-11-12T20:09:45.274Z,19.96
2018-11-12T20:15:40.374Z,19.2
2018-11-12T20:21:35.240Z,17.32
2018-11-12T20:27:30.259Z,18.59
2018-11-12T20:33:25.262Z,18.84
2018-11-12T20:39:20.271Z,23.46
2018-11-12T20:45:15.394Z,21.01
2018-11-12T20:51:10.289Z,22.4
2018-11-12T20:57:05.295Z,22.12
2018-11-12T21:03:00.321Z,25.23
2018-11-12T21:08:55.307Z,21.22
2018-11-12T21:14:50.336Z,16.36
2018-11-12T21:20:45.285Z,16.27
2018-11-12T21:26:40.282Z,13.37
2018-11-12T21:32:35.285Z,11.9
2018-11-12T21:38:30.292Z,11.54
2018-11-12T21:44:25.305Z,13.29
2018-11-12T21:50:20.343Z,14.17
2018-11-12T21:56:15.340Z,16.04
2018-11-12T22:02:10.308Z,15.33
2018-11-12T22:08:05.335Z,16.1
2018-11-12T22:14:00.315Z,16.33
2018-11-12T22:19:55.447Z,20.5
2018-11-12T22:25:50.339Z,22.09
2018-11-12T22:31:45.318Z,18.29
2018-11-12T22:37:40.524Z,16.07
2018-11-12T22:43:35.330Z,17.1
2018-11-12T22:49:30.319Z,15.36
2018-11-12T22:55:25.342Z,13.05
2018-11-12T23:01:20.347Z,10.53
2018-11-12T23:07:15.328Z,9.93
2018-11-12T23:13:10.337Z,12.95
2018-11-12T23:19:05.330Z,18.53
2018-11-12T23:25:00.385Z,19.83
2018-11-12T23:30:55.334Z,18.62
2018-11-12T23:36:50.355Z,19.84
2018-11-12T23:42:45.397Z,23.75
2018-11-12T23:48:40.388Z,23.22
2018-11-12T23:54:35.476Z,19.25
